sensor_id;sensor_type;location;lat;lon;timestamp;pressure;altitude;pressure_sealevel;temperature
66473;BMP280;70264;48.802;9.224;2023-10-19T00:01:21;97425.78;;;12.13
66473;BMP280;70264;48.802;9.224;2023-10-19T00:03:50;97419.81;;;12.19
66473;BMP280;70264;48.802;9.224;2023-10-19T00:06:21;97420.81;;;12.18
66473;BMP280;70264;48.802;9.224;2023-10-19T00:08:46;97405.66;;;12.16
66473;BMP280;70264;48.802;9.224;2023-10-19T00:11:12;97420.59;;;12.19
66473;BMP280;70264;48.802;9.224;2023-10-19T00:13:52;97419.25;;;12.17
66473;BMP280;70264;48.802;9.224;2023-10-19T00:16:22;97412.91;;;12.19
66473;BMP280;70264;48.802;9.224;2023-10-19T00:18:54;97400.34;;;12.18
66473;BMP280;70264;48.802;9.224;2023-10-19T00:21:24;97406.66;;;12.15
66473;BMP280;70264;48.802;9.224;2023-10-19T00:23:54;97398.44;;;12.25
66473;BMP280;70264;48.802;9.224;2023-10-19T00:26:26;97401.31;;;12.28
66473;BMP280;70264;48.802;9.224;2023-10-19T00:28:52;97395.13;;;12.24
66473;BMP280;70264;48.802;9.224;2023-10-19T00:31:25;97395.75;;;12.20
66473;BMP280;70264;48.802;9.224;2023-10-19T00:33:56;97399.66;;;12.22
66473;BMP280;70264;48.802;9.224;2023-10-19T00:36:24;97409.91;;;12.22
66473;BMP280;70264;48.802;9.224;2023-10-19T00:38:50;97409.00;;;12.28
66473;BMP280;70264;48.802;9.224;2023-10-19T00:41:17;97407.13;;;12.35
66473;BMP280;70264;48.802;9.224;2023-10-19T00:43:57;97415.41;;;12.37
66473;BMP280;70264;48.802;9.224;2023-10-19T00:46:27;97402.59;;;12.37
66473;BMP280;70264;48.802;9.224;2023-10-19T00:49:09;97390.09;;;12.41
66473;BMP280;70264;48.802;9.224;2023-10-19T00:51:41;97397.91;;;12.46
66473;BMP280;70264;48.802;9.224;2023-10-19T00:54:30;97390.09;;;12.52
66473;BMP280;70264;48.802;9.224;2023-10-19T00:57:01;97381.41;;;12.53
66473;BMP280;70264;48.802;9.224;2023-10-19T00:59:38;97373.06;;;12.58
66473;BMP280;70264;48.802;9.224;2023-10-19T01:02:08;97374.72;;;12.52
66473;BMP280;70264;48.802;9.224;2023-10-19T01:04:52;97364.47;;;12.52
66473;BMP280;70264;48.802;9.224;2023-10-19T01:07:25;97360.50;;;12.45
66473;BMP280;70264;48.802;9.224;2023-10-19T01:09:58;97344.75;;;12.41
66473;BMP280;70264;48.802;9.224;2023-10-19T01:12:24;97349.56;;;12.38
66473;BMP280;70264;48.802;9.224;2023-10-19T01:15:18;97349.56;;;12.38
66473;BMP280;70264;48.802;9.224;2023-10-19T01:17:56;97340.41;;;12.42
66473;BMP280;70264;48.802;9.224;2023-10-19T01:20:22;97340.41;;;12.42
66473;BMP280;70264;48.802;9.224;2023-10-19T01:23:03;97344.75;;;12.41
66473;BMP280;70264;48.802;9.224;2023-10-19T01:28:09;97328.91;;;12.33
66473;BMP280;70264;48.802;9.224;2023-10-19T01:30:36;97328.91;;;12.33
66473;BMP280;70264;48.802;9.224;2023-10-19T01:33:04;97318.03;;;12.49
66473;BMP280;70264;48.802;9.224;2023-10-19T01:35:35;97310.56;;;12.47
66473;BMP280;70264;48.802;9.224;2023-10-19T01:38:19;97310.88;;;12.51
66473;BMP280;70264;48.802;9.224;2023-10-19T01:40:45;97310.22;;;12.56
66473;BMP280;70264;48.802;9.224;2023-10-19T01:43:16;97300.84;;;12.61
66473;BMP280;70264;48.802;9.224;2023-10-19T01:45:52;97304.28;;;12.67
66473;BMP280;70264;48.802;9.224;2023-10-19T01:48:20;97301.09;;;12.71
66473;BMP280;70264;48.802;9.224;2023-10-19T01:50:48;97294.81;;;12.79
66473;BMP280;70264;48.802;9.224;2023-10-19T01:53:18;97298.69;;;12.81
66473;BMP280;70264;48.802;9.224;2023-10-19T01:55:46;97294.34;;;12.82
66473;BMP280;70264;48.802;9.224;2023-10-19T01:58:15;97293.34;;;12.83
66473;BMP280;70264;48.802;9.224;2023-10-19T02:00:43;97296.00;;;12.88
66473;BMP280;70264;48.802;9.224;2023-10-19T02:03:10;97291.44;;;12.90
66473;BMP280;70264;48.802;9.224;2023-10-19T02:05:35;97293.00;;;12.91
66473;BMP280;70264;48.802;9.224;2023-10-19T02:08:08;97294.00;;;12.90
66473;BMP280;70264;48.802;9.224;2023-10-19T02:10:34;97294.56;;;12.92
66473;BMP280;70264;48.802;9.224;2023-10-19T02:13:08;97292.00;;;12.92
66473;BMP280;70264;48.802;9.224;2023-10-19T02:15:36;97285.84;;;12.93
66473;BMP280;70264;48.802;9.224;2023-10-19T02:18:03;97281.50;;;12.93
66473;BMP280;70264;48.802;9.224;2023-10-19T02:20:32;97278.16;;;12.93
66473;BMP280;70264;48.802;9.224;2023-10-19T02:22:58;97274.72;;;12.87
66473;BMP280;70264;48.802;9.224;2023-10-19T02:25:33;97271.16;;;12.88
66473;BMP280;70264;48.802;9.224;2023-10-19T02:28:05;97274.72;;;12.87
66473;BMP280;70264;48.802;9.224;2023-10-19T02:30:32;97269.69;;;12.81
66473;BMP280;70264;48.802;9.224;2023-10-19T02:33:03;97262.13;;;12.86
66473;BMP280;70264;48.802;9.224;2023-10-19T02:35:33;97265.69;;;12.85
66473;BMP280;70264;48.802;9.224;2023-10-19T02:38:02;97266.69;;;12.84
66473;BMP280;70264;48.802;9.224;2023-10-19T02:40:31;97269.16;;;12.79
66473;BMP280;70264;48.802;9.224;2023-10-19T02:42:59;97259.00;;;12.84
66473;BMP280;70264;48.802;9.224;2023-10-19T02:45:28;97268.47;;;12.83
66473;BMP280;70264;48.802;9.224;2023-10-19T02:47:57;97263.34;;;12.83
66473;BMP280;70264;48.802;9.224;2023-10-19T02:50:23;97274.03;;;12.80
66473;BMP280;70264;48.802;9.224;2023-10-19T02:52:52;97255.56;;;12.78
66473;BMP280;70264;48.802;9.224;2023-10-19T02:55:18;97258.03;;;12.73
66473;BMP280;70264;48.802;9.224;2023-10-19T02:57:45;97252.81;;;12.68
66473;BMP280;70264;48.802;9.224;2023-10-19T03:00:12;97251.25;;;12.67
66473;BMP280;70264;48.802;9.224;2023-10-19T03:02:40;97242.09;;;12.60
66473;BMP280;70264;48.802;9.224;2023-10-19T03:05:08;97245.91;;;12.57
66473;BMP280;70264;48.802;9.224;2023-10-19T03:07:43;97253.50;;;12.52
66473;BMP280;70264;48.802;9.224;2023-10-19T03:10:11;97254.25;;;12.52
66473;BMP280;70264;48.802;9.224;2023-10-19T03:12:50;97240.38;;;12.48
66473;BMP280;70264;48.802;9.224;2023-10-19T03:15:17;97245.03;;;12.51
66473;BMP280;70264;48.802;9.224;2023-10-19T03:17:48;97231.69;;;12.49
66473;BMP280;70264;48.802;9.224;2023-10-19T03:20:16;97226.63;;;12.54
66473;BMP280;70264;48.802;9.224;2023-10-19T03:22:49;97228.09;;;12.50
66473;BMP280;70264;48.802;9.224;2023-10-19T03:25:16;97231.34;;;12.46
66473;BMP280;70264;48.802;9.224;2023-10-19T03:28:00;97224.22;;;12.36
66473;BMP280;70264;48.802;9.224;2023-10-19T03:30:38;97220.09;;;12.35
66473;BMP280;70264;48.802;9.224;2023-10-19T03:33:05;97229.34;;;12.36
66473;BMP280;70264;48.802;9.224;2023-10-19T03:35:31;97222.22;;;12.38
66473;BMP280;70264;48.802;9.224;2023-10-19T03:37:56;97209.84;;;12.47
66473;BMP280;70264;48.802;9.224;2023-10-19T03:40:28;97221.88;;;12.46
66473;BMP280;70264;48.802;9.224;2023-10-19T03:42:55;97213.50;;;12.51
66473;BMP280;70264;48.802;9.224;2023-10-19T03:45:20;97212.72;;;12.50
66473;BMP280;70264;48.802;9.224;2023-10-19T03:47:50;97211.94;;;12.50
66473;BMP280;70264;48.802;9.224;2023-10-19T03:50:18;97203.63;;;12.43
66473;BMP280;70264;48.802;9.224;2023-10-19T03:52:47;97208.53;;;12.44
66473;BMP280;70264;48.802;9.224;2023-10-19T03:55:15;97203.06;;;12.41
66473;BMP280;70264;48.802;9.224;2023-10-19T03:57:46;97207.84;;;12.37
66473;BMP280;70264;48.802;9.224;2023-10-19T04:00:18;97193.69;;;12.35
66473;BMP280;70264;48.802;9.224;2023-10-19T04:02:56;97193.81;;;12.28
66473;BMP280;70264;48.802;9.224;2023-10-19T04:05:23;97190.94;;;12.25
66473;BMP280;70264;48.802;9.224;2023-10-19T04:07:52;97191.25;;;12.28
66473;BMP280;70264;48.802;9.224;2023-10-19T04:10:24;97186.13;;;12.28
66473;BMP280;70264;48.802;9.224;2023-10-19T04:13:06;97178.44;;;12.28
66473;BMP280;70264;48.802;9.224;2023-10-19T04:15:35;97175.66;;;12.30
66473;BMP280;70264;48.802;9.224;2023-10-19T04:18:02;97175.22;;;12.33
66473;BMP280;70264;48.802;9.224;2023-10-19T04:20:36;97172.63;;;12.33
66473;BMP280;70264;48.802;9.224;2023-10-19T04:23:07;97166.75;;;12.32
66473;BMP280;70264;48.802;9.224;2023-10-19T04:25:36;97174.09;;;12.40
66473;BMP280;70264;48.802;9.224;2023-10-19T04:28:03;97171.00;;;12.38
66473;BMP280;70264;48.802;9.224;2023-10-19T04:30:30;97169.97;;;12.39
66473;BMP280;70264;48.802;9.224;2023-10-19T04:33:00;97167.75;;;12.43
66473;BMP280;70264;48.802;9.224;2023-10-19T04:35:29;97164.41;;;12.42
66473;BMP280;70264;48.802;9.224;2023-10-19T04:37:59;97159.59;;;12.46
66473;BMP280;70264;48.802;9.224;2023-10-19T04:40:27;97153.69;;;12.45
66473;BMP280;70264;48.802;9.224;2023-10-19T04:42:53;97157.28;;;12.44
66473;BMP280;70264;48.802;9.224;2023-10-19T04:45:22;97152.16;;;12.44
66473;BMP280;70264;48.802;9.224;2023-10-19T04:47:51;97153.94;;;12.44
66473;BMP280;70264;48.802;9.224;2023-10-19T04:50:20;97152.59;;;12.41
66473;BMP280;70264;48.802;9.224;2023-10-19T04:52:48;97146.59;;;12.36
66473;BMP280;70264;48.802;9.224;2023-10-19T04:55:16;97145.81;;;12.35
66473;BMP280;70264;48.802;9.224;2023-10-19T04:57:41;97155.28;;;12.35
66473;BMP280;70264;48.802;9.224;2023-10-19T05:00:10;97154.50;;;12.34
66473;BMP280;70264;48.802;9.224;2023-10-19T05:02:41;97146.81;;;12.34
66473;BMP280;70264;48.802;9.224;2023-10-19T05:05:06;97144.94;;;12.30
66473;BMP280;70264;48.802;9.224;2023-10-19T05:07:32;97147.72;;;12.28
66473;BMP280;70264;48.802;9.224;2023-10-19T05:09:59;97157.97;;;12.28
66473;BMP280;70264;48.802;9.224;2023-10-19T05:12:25;97143.38;;;12.29
66473;BMP280;70264;48.802;9.224;2023-10-19T05:14:54;97151.63;;;12.31
66473;BMP280;70264;48.802;9.224;2023-10-19T05:17:20;97154.41;;;12.29
66473;BMP280;70264;48.802;9.224;2023-10-19T05:19:46;97150.28;;;12.28
66473;BMP280;70264;48.802;9.224;2023-10-19T05:22:11;97143.59;;;12.27
66473;BMP280;70264;48.802;9.224;2023-10-19T05:24:37;97145.50;;;12.20
66473;BMP280;70264;48.802;9.224;2023-10-19T05:27:02;97149.06;;;12.19
66473;BMP280;70264;48.802;9.224;2023-10-19T05:29:31;97159.66;;;12.23
66473;BMP280;70264;48.802;9.224;2023-10-19T05:31:59;97149.31;;;12.18
66473;BMP280;70264;48.802;9.224;2023-10-19T05:34:28;97151.19;;;12.10
66473;BMP280;70264;48.802;9.224;2023-10-19T05:36:57;97150.44;;;12.10
66473;BMP280;70264;48.802;9.224;2023-10-19T05:39:28;97153.75;;;12.10
66473;BMP280;70264;48.802;9.224;2023-10-19T05:41:54;97142.28;;;12.13
66473;BMP280;70264;48.802;9.224;2023-10-19T05:44:20;97147.31;;;12.08
66473;BMP280;70264;48.802;9.224;2023-10-19T05:46:47;97143.97;;;12.07
66473;BMP280;70264;48.802;9.224;2023-10-19T05:49:15;97147.31;;;12.08
66473;BMP280;70264;48.802;9.224;2023-10-19T05:51:45;97157.56;;;12.08
66473;BMP280;70264;48.802;9.224;2023-10-19T05:54:10;97156.31;;;12.10
66473;BMP280;70264;48.802;9.224;2023-10-19T05:56:42;97156.31;;;12.10
66473;BMP280;70264;48.802;9.224;2023-10-19T05:59:08;97162.34;;;12.16
66473;BMP280;70264;48.802;9.224;2023-10-19T06:01:35;97157.75;;;12.18
66473;BMP280;70264;48.802;9.224;2023-10-19T06:04:00;97160.44;;;12.23
66473;BMP280;70264;48.802;9.224;2023-10-19T06:06:26;97160.31;;;12.30
66473;BMP280;70264;48.802;9.224;2023-10-19T06:08:51;97160.84;;;12.32
66473;BMP280;70264;48.802;9.224;2023-10-19T06:11:21;97155.28;;;12.35
66473;BMP280;70264;48.802;9.224;2023-10-19T06:13:46;97165.09;;;12.38
66473;BMP280;70264;48.802;9.224;2023-10-19T06:16:16;97162.06;;;12.41
66473;BMP280;70264;48.802;9.224;2023-10-19T06:18:46;97169.16;;;12.50
66473;BMP280;70264;48.802;9.224;2023-10-19T06:21:11;97166.69;;;12.56
66473;BMP280;70264;48.802;9.224;2023-10-19T06:23:37;97181.63;;;12.59
66473;BMP280;70264;48.802;9.224;2023-10-19T06:26:09;97175.59;;;12.65
66473;BMP280;70264;48.802;9.224;2023-10-19T06:28:39;97173.03;;;12.65
66473;BMP280;70264;48.802;9.224;2023-10-19T06:31:05;97173.03;;;12.65
66473;BMP280;70264;48.802;9.224;2023-10-19T06:33:31;97175.91;;;12.68
66473;BMP280;70264;48.802;9.224;2023-10-19T06:35:58;97166.66;;;12.67
66473;BMP280;70264;48.802;9.224;2023-10-19T06:38:24;97169.63;;;12.76
66473;BMP280;70264;48.802;9.224;2023-10-19T06:40:53;97173.84;;;12.82
66473;BMP280;70264;48.802;9.224;2023-10-19T06:43:18;97177.03;;;12.89
66473;BMP280;70264;48.802;9.224;2023-10-19T06:45:53;97169.44;;;12.94
66473;BMP280;70264;48.802;9.224;2023-10-19T06:48:20;97167.50;;;13.01
66473;BMP280;70264;48.802;9.224;2023-10-19T06:50:46;97165.47;;;13.03
66473;BMP280;70264;48.802;9.224;2023-10-19T06:53:11;97170.16;;;13.06
66473;BMP280;70264;48.802;9.224;2023-10-19T06:55:37;97161.78;;;13.11
66473;BMP280;70264;48.802;9.224;2023-10-19T06:58:05;97166.13;;;13.27
66473;BMP280;70264;48.802;9.224;2023-10-19T07:00:34;97159.63;;;13.36
66473;BMP280;70264;48.802;9.224;2023-10-19T07:02:59;97160.84;;;13.50
66473;BMP280;70264;48.802;9.224;2023-10-19T07:05:28;97156.88;;;13.59
66473;BMP280;70264;48.802;9.224;2023-10-19T07:07:58;97158.19;;;13.62
66473;BMP280;70264;48.802;9.224;2023-10-19T07:10:24;97160.28;;;13.65
66473;BMP280;70264;48.802;9.224;2023-10-19T07:12:52;97152.84;;;13.63
66473;BMP280;70264;48.802;9.224;2023-10-19T07:15:24;97158.19;;;13.62
66473;BMP280;70264;48.802;9.224;2023-10-19T07:17:53;97149.94;;;13.60
66473;BMP280;70264;48.802;9.224;2023-10-19T07:20:21;97156.75;;;13.71
66473;BMP280;70264;48.802;9.224;2023-10-19T07:22:57;97153.38;;;13.65
66473;BMP280;70264;48.802;9.224;2023-10-19T07:25:25;97156.47;;;13.67
66473;BMP280;70264;48.802;9.224;2023-10-19T07:27:52;97158.94;;;13.79
66473;BMP280;70264;48.802;9.224;2023-10-19T07:30:21;97150.84;;;13.87
66473;BMP280;70264;48.802;9.224;2023-10-19T07:32:49;97142.47;;;13.97
66473;BMP280;70264;48.802;9.224;2023-10-19T07:35:20;97158.72;;;14.02
66473;BMP280;70264;48.802;9.224;2023-10-19T07:37:47;97149.53;;;14.06
66473;BMP280;70264;48.802;9.224;2023-10-19T07:40:15;97137.63;;;14.22
66473;BMP280;70264;48.802;9.224;2023-10-19T07:42:44;97140.81;;;14.29
66473;BMP280;70264;48.802;9.224;2023-10-19T07:45:09;97134.97;;;14.39
66473;BMP280;70264;48.802;9.224;2023-10-19T07:47:40;97140.88;;;14.39
66473;BMP280;70264;48.802;9.224;2023-10-19T07:50:09;97135.28;;;14.42
66473;BMP280;70264;48.802;9.224;2023-10-19T07:52:48;97134.06;;;14.50
66473;BMP280;70264;48.802;9.224;2023-10-19T07:55:15;97126.47;;;14.60
66473;BMP280;70264;48.802;9.224;2023-10-19T07:57:43;97127.66;;;14.79
66473;BMP280;70264;48.802;9.224;2023-10-19T08:00:12;97126.19;;;14.88
66473;BMP280;70264;48.802;9.224;2023-10-19T08:02:39;97123.13;;;14.91
66473;BMP280;70264;48.802;9.224;2023-10-19T08:05:09;97122.09;;;14.92
66473;BMP280;70264;48.802;9.224;2023-10-19T08:07:37;97124.72;;;14.97
66473;BMP280;70264;48.802;9.224;2023-10-19T08:10:08;97127.41;;;15.12
66473;BMP280;70264;48.802;9.224;2023-10-19T08:12:37;97124.56;;;15.14
66473;BMP280;70264;48.802;9.224;2023-10-19T08:15:03;97116.09;;;15.13
66473;BMP280;70264;48.802;9.224;2023-10-19T08:17:29;97115.88;;;15.20
66473;BMP280;70264;48.802;9.224;2023-10-19T08:19:55;97114.81;;;15.16
66473;BMP280;70264;48.802;9.224;2023-10-19T08:22:21;97121.38;;;15.29
66473;BMP280;70264;48.802;9.224;2023-10-19T08:24:49;97127.28;;;15.29
66473;BMP280;70264;48.802;9.224;2023-10-19T08:27:15;97122.44;;;15.43
66473;BMP280;70264;48.802;9.224;2023-10-19T08:29:43;97125.63;;;15.55
66473;BMP280;70264;48.802;9.224;2023-10-19T08:32:08;97131.13;;;15.74
66473;BMP280;70264;48.802;9.224;2023-10-19T08:34:36;97122.84;;;15.67
66473;BMP280;70264;48.802;9.224;2023-10-19T08:37:04;97122.91;;;15.87
66473;BMP280;70264;48.802;9.224;2023-10-19T08:39:32;97118.63;;;16.02
66473;BMP280;70264;48.802;9.224;2023-10-19T08:42:05;97117.63;;;16.24
66473;BMP280;70264;48.802;9.224;2023-10-19T08:44:33;97117.63;;;16.24
66473;BMP280;70264;48.802;9.224;2023-10-19T08:47:01;97117.94;;;16.37
66473;BMP280;70264;48.802;9.224;2023-10-19T08:49:26;97107.34;;;16.39
66473;BMP280;70264;48.802;9.224;2023-10-19T08:51:54;97108.09;;;16.34
66473;BMP280;70264;48.802;9.224;2023-10-19T08:54:21;97108.09;;;16.34
66473;BMP280;70264;48.802;9.224;2023-10-19T08:56:46;97106.84;;;16.47
66473;BMP280;70264;48.802;9.224;2023-10-19T08:59:14;97099.88;;;16.52
66473;BMP280;70264;48.802;9.224;2023-10-19T09:01:43;97107.09;;;16.66
66473;BMP280;70264;48.802;9.224;2023-10-19T09:04:11;97103.50;;;16.72
66473;BMP280;70264;48.802;9.224;2023-10-19T09:06:40;97088.78;;;16.82
66473;BMP280;70264;48.802;9.224;2023-10-19T09:09:09;97096.03;;;16.95
66473;BMP280;70264;48.802;9.224;2023-10-19T09:11:42;97090.81;;;17.16
66473;BMP280;70264;48.802;9.224;2023-10-19T09:14:07;97089.22;;;17.30
66473;BMP280;70264;48.802;9.224;2023-10-19T09:16:35;97089.41;;;17.54
66473;BMP280;70264;48.802;9.224;2023-10-19T09:19:02;97092.47;;;17.61
66473;BMP280;70264;48.802;9.224;2023-10-19T09:21:27;97093.13;;;17.86
66473;BMP280;70264;48.802;9.224;2023-10-19T09:23:55;97085.75;;;18.09
66473;BMP280;70264;48.802;9.224;2023-10-19T09:26:24;97093.03;;;18.07
66473;BMP280;70264;48.802;9.224;2023-10-19T09:28:51;97083.16;;;18.14
66473;BMP280;70264;48.802;9.224;2023-10-19T09:31:17;97082.13;;;18.15
66473;BMP280;70264;48.802;9.224;2023-10-19T09:33:47;97087.75;;;18.22
66473;BMP280;70264;48.802;9.224;2023-10-19T09:36:15;97086.94;;;18.26
66473;BMP280;70264;48.802;9.224;2023-10-19T09:38:47;97076.03;;;18.34
66473;BMP280;70264;48.802;9.224;2023-10-19T09:41:22;97066.63;;;18.44
66473;BMP280;70264;48.802;9.224;2023-10-19T09:43:57;97068.25;;;18.34
66473;BMP280;70264;48.802;9.224;2023-10-19T09:46:33;97055.19;;;18.50
66473;BMP280;70264;48.802;9.224;2023-10-19T09:49:02;97061.22;;;18.40
66473;BMP280;70264;48.802;9.224;2023-10-19T09:51:29;97062.31;;;18.34
66473;BMP280;70264;48.802;9.224;2023-10-19T09:54:04;97055.41;;;18.58
66473;BMP280;70264;48.802;9.224;2023-10-19T09:56:37;97050.22;;;18.58
66473;BMP280;70264;48.802;9.224;2023-10-19T09:59:29;97057.75;;;18.21
66473;BMP280;70264;48.802;9.224;2023-10-19T10:04:34;97061.06;;;18.26
66473;BMP280;70264;48.802;9.224;2023-10-19T10:07:03;97062.78;;;18.41
66473;BMP280;70264;48.802;9.224;2023-10-19T10:09:31;97062.59;;;18.61
66473;BMP280;70264;48.802;9.224;2023-10-19T10:12:18;97055.66;;;18.57
66473;BMP280;70264;48.802;9.224;2023-10-19T10:15:01;97059.78;;;18.58
66473;BMP280;70264;48.802;9.224;2023-10-19T10:17:39;97059.50;;;18.30
66473;BMP280;70264;48.802;9.224;2023-10-19T10:22:39;97036.53;;;18.81
66473;BMP280;70264;48.802;9.224;2023-10-19T10:25:25;97042.91;;;18.89
66473;BMP280;70264;48.802;9.224;2023-10-19T10:27:51;97040.09;;;18.85
66473;BMP280;70264;48.802;9.224;2023-10-19T10:30:16;97041.53;;;18.97
66473;BMP280;70264;48.802;9.224;2023-10-19T10:38:09;97036.81;;;19.04
66473;BMP280;70264;48.802;9.224;2023-10-19T10:40:44;97033.47;;;19.22
66473;BMP280;70264;48.802;9.224;2023-10-19T10:43:12;97039.69;;;19.21
66473;BMP280;70264;48.802;9.224;2023-10-19T10:45:40;97033.66;;;19.07
66473;BMP280;70264;48.802;9.224;2023-10-19T10:48:17;97033.59;;;18.88
66473;BMP280;70264;48.802;9.224;2023-10-19T10:50:44;97032.53;;;18.89
66473;BMP280;70264;48.802;9.224;2023-10-19T10:53:14;97038.09;;;18.82
66473;BMP280;70264;48.802;9.224;2023-10-19T10:55:45;97036.63;;;18.71
66473;BMP280;70264;48.802;9.224;2023-10-19T10:58:17;97033.50;;;18.69
66473;BMP280;70264;48.802;9.224;2023-10-19T11:00:46;97034.34;;;18.65
66473;BMP280;70264;48.802;9.224;2023-10-19T11:03:16;97032.09;;;18.24
66473;BMP280;70264;48.802;9.224;2023-10-19T11:05:42;97031.97;;;18.39
66473;BMP280;70264;48.802;9.224;2023-10-19T11:08:16;97036.44;;;18.34
66473;BMP280;70264;48.802;9.224;2023-10-19T11:10:45;97039.66;;;18.16
66473;BMP280;70264;48.802;9.224;2023-10-19T11:13:15;97040.50;;;18.11
66473;BMP280;70264;48.802;9.224;2023-10-19T11:15:49;97038.31;;;18.23
66473;BMP280;70264;48.802;9.224;2023-10-19T11:18:40;97031.84;;;18.26
66473;BMP280;70264;48.802;9.224;2023-10-19T11:21:08;97031.41;;;18.14
66473;BMP280;70264;48.802;9.224;2023-10-19T11:26:17;97038.25;;;17.95
66473;BMP280;70264;48.802;9.224;2023-10-19T11:28:42;97032.25;;;17.65
66473;BMP280;70264;48.802;9.224;2023-10-19T11:31:16;97032.75;;;17.67
66473;BMP280;70264;48.802;9.224;2023-10-19T11:33:45;97043.63;;;17.64
66473;BMP280;70264;48.802;9.224;2023-10-19T11:36:11;97036.97;;;17.48
66473;BMP280;70264;48.802;9.224;2023-10-19T11:38:44;97039.34;;;17.39
66473;BMP280;70264;48.802;9.224;2023-10-19T11:41:14;97032.47;;;17.20
66473;BMP280;70264;48.802;9.224;2023-10-19T11:43:44;97034.72;;;17.21
66473;BMP280;70264;48.802;9.224;2023-10-19T11:46:12;97036.03;;;17.29
66473;BMP280;70264;48.802;9.224;2023-10-19T11:48:43;97030.59;;;17.35
66473;BMP280;70264;48.802;9.224;2023-10-19T11:51:12;97026.47;;;17.29
66473;BMP280;70264;48.802;9.224;2023-10-19T11:53:42;97024.69;;;17.25
66473;BMP280;70264;48.802;9.224;2023-10-19T11:56:10;97026.25;;;17.21
66473;BMP280;70264;48.802;9.224;2023-10-19T11:58:38;97026.78;;;17.13
66473;BMP280;70264;48.802;9.224;2023-10-19T12:01:08;97018.78;;;17.14
66473;BMP280;70264;48.802;9.224;2023-10-19T12:03:38;97008.91;;;17.21
66473;BMP280;70264;48.802;9.224;2023-10-19T12:06:11;96997.53;;;17.27
66473;BMP280;70264;48.802;9.224;2023-10-19T12:08:44;96983.06;;;17.31
66473;BMP280;70264;48.802;9.224;2023-10-19T12:11:09;96982.53;;;17.34
66473;BMP280;70264;48.802;9.224;2023-10-19T12:13:44;96978.22;;;17.20
66473;BMP280;70264;48.802;9.224;2023-10-19T12:16:12;96977.19;;;17.16
66473;BMP280;70264;48.802;9.224;2023-10-19T12:18:42;96975.16;;;17.08
66473;BMP280;70264;48.802;9.224;2023-10-19T12:21:10;96975.91;;;17.13
66473;BMP280;70264;48.802;9.224;2023-10-19T12:23:42;96968.94;;;17.14
66473;BMP280;70264;48.802;9.224;2023-10-19T12:26:08;96967.38;;;17.18
66473;BMP280;70264;48.802;9.224;2023-10-19T12:28:38;96952.91;;;17.17
66473;BMP280;70264;48.802;9.224;2023-10-19T12:31:03;96941.78;;;17.21
66473;BMP280;70264;48.802;9.224;2023-10-19T12:33:30;96951.84;;;17.23
66473;BMP280;70264;48.802;9.224;2023-10-19T12:35:56;96964.50;;;17.24
66473;BMP280;70264;48.802;9.224;2023-10-19T12:38:22;96955.44;;;17.27
66473;BMP280;70264;48.802;9.224;2023-10-19T12:40:50;96956.72;;;17.34
66473;BMP280;70264;48.802;9.224;2023-10-19T12:43:19;96932.69;;;17.39
66473;BMP280;70264;48.802;9.224;2023-10-19T12:45:47;96926.50;;;17.35
66473;BMP280;70264;48.802;9.224;2023-10-19T12:48:18;96917.25;;;17.24
66473;BMP280;70264;48.802;9.224;2023-10-19T12:50:46;96941.09;;;17.11
66473;BMP280;70264;48.802;9.224;2023-10-19T12:53:15;96917.31;;;17.09
66473;BMP280;70264;48.802;9.224;2023-10-19T12:55:41;96924.56;;;17.02
66473;BMP280;70264;48.802;9.224;2023-10-19T12:58:10;96932.34;;;16.96
66473;BMP280;70264;48.802;9.224;2023-10-19T13:00:36;96939.56;;;17.00
66473;BMP280;70264;48.802;9.224;2023-10-19T13:03:08;96939.56;;;17.00
66473;BMP280;70264;48.802;9.224;2023-10-19T13:05:39;96951.94;;;16.97
66473;BMP280;70264;48.802;9.224;2023-10-19T13:08:05;96955.88;;;16.90
66473;BMP280;70264;48.802;9.224;2023-10-19T13:10:32;96957.94;;;16.83
66473;BMP280;70264;48.802;9.224;2023-10-19T13:13:05;96960.78;;;16.86
66473;BMP280;70264;48.802;9.224;2023-10-19T13:15:31;96960.78;;;16.86
66473;BMP280;70264;48.802;9.224;2023-10-19T13:17:57;96963.34;;;16.86
66473;BMP280;70264;48.802;9.224;2023-10-19T13:20:28;96949.97;;;16.79
66473;BMP280;70264;48.802;9.224;2023-10-19T13:23:02;96943.25;;;16.83
66473;BMP280;70264;48.802;9.224;2023-10-19T13:25:33;96941.63;;;16.97
66473;BMP280;70264;48.802;9.224;2023-10-19T13:28:14;96940.31;;;17.10
66473;BMP280;70264;48.802;9.224;2023-10-19T13:30:41;96934.06;;;17.16
66473;BMP280;70264;48.802;9.224;2023-10-19T13:33:07;96932.75;;;17.24
66473;BMP280;70264;48.802;9.224;2023-10-19T13:35:43;96935.81;;;17.26
66473;BMP280;70264;48.802;9.224;2023-10-19T13:38:09;96922.88;;;17.31
66473;BMP280;70264;48.802;9.224;2023-10-19T13:40:38;96925.00;;;17.24
66473;BMP280;70264;48.802;9.224;2023-10-19T13:43:07;96922.22;;;17.15
66473;BMP280;70264;48.802;9.224;2023-10-19T13:45:36;96919.66;;;17.10
66473;BMP280;70264;48.802;9.224;2023-10-19T13:48:05;96919.66;;;17.10
66473;BMP280;70264;48.802;9.224;2023-10-19T13:50:35;96911.13;;;17.10
66473;BMP280;70264;48.802;9.224;2023-10-19T13:53:03;96905.22;;;17.04
66473;BMP280;70264;48.802;9.224;2023-10-19T13:55:30;96901.09;;;16.98
66473;BMP280;70264;48.802;9.224;2023-10-19T13:57:56;96896.72;;;16.98
66473;BMP280;70264;48.802;9.224;2023-10-19T14:00:23;96895.94;;;16.98
66473;BMP280;70264;48.802;9.224;2023-10-19T14:02:52;96895.91;;;17.03
66473;BMP280;70264;48.802;9.224;2023-10-19T14:05:21;96891.00;;;17.02
66473;BMP280;70264;48.802;9.224;2023-10-19T14:07:50;96889.97;;;17.08
66473;BMP280;70264;48.802;9.224;2023-10-19T14:10:18;96878.31;;;17.15
66473;BMP280;70264;48.802;9.224;2023-10-19T14:12:48;96876.97;;;17.23
66473;BMP280;70264;48.802;9.224;2023-10-19T14:15:19;96881.16;;;17.14
66473;BMP280;70264;48.802;9.224;2023-10-19T14:17:46;96875.78;;;17.05
66473;BMP280;70264;48.802;9.224;2023-10-19T14:20:17;96875.00;;;17.05
66473;BMP280;70264;48.802;9.224;2023-10-19T14:22:48;96871.94;;;16.97
66473;BMP280;70264;48.802;9.224;2023-10-19T14:25:16;96875.34;;;16.88
66473;BMP280;70264;48.802;9.224;2023-10-19T14:27:46;96874.56;;;16.92
66473;BMP280;70264;48.802;9.224;2023-10-19T14:30:22;96868.88;;;16.90
66473;BMP280;70264;48.802;9.224;2023-10-19T14:32:48;96867.09;;;16.86
66473;BMP280;70264;48.802;9.224;2023-10-19T14:35:19;96862.69;;;16.91
66473;BMP280;70264;48.802;9.224;2023-10-19T14:37:51;96859.31;;;16.91